createdAt,value
2022-12-18T00:02:11.057Z,101959.09
2022-12-18T00:06:12.263Z,101965.31
2022-12-18T00:10:11.635Z,101965.06
2022-12-18T00:14:17.502Z,101976.19
2022-12-18T00:18:20.668Z,101966.09
2022-12-18T00:22:20.071Z,101973.28
2022-12-18T00:26:20.652Z,101985.84
2022-12-18T00:30:21.349Z,101987.97
2022-12-18T00:34:22.697Z,101980.94
2022-12-18T00:38:21.967Z,101985.25
2022-12-18T00:42:38.620Z,101989.59
2022-12-18T00:46:37.889Z,101996.88
2022-12-18T00:50:39.256Z,102009.34
2022-12-18T00:54:38.552Z,102010.38
2022-12-18T00:58:41.286Z,102012.00
2022-12-18T01:02:40.183Z,102023.91
2022-12-18T01:06:41.705Z,102025.66
2022-12-18T01:10:42.744Z,102034.34
2022-12-18T01:14:41.914Z,102026.34
2022-12-18T01:18:40.715Z,102029.09
2022-12-18T01:22:42.074Z,102027.03
2022-12-18T01:26:43.217Z,102029.09
2022-12-18T01:30:42.544Z,102028.56
2022-12-18T01:34:41.425Z,102038.06
2022-12-18T01:38:42.801Z,102049.59
2022-12-18T01:42:41.555Z,102042.34
2022-12-18T01:46:40.757Z,102049.25
2022-12-18T01:50:41.727Z,102054.94
2022-12-18T01:54:44.412Z,102052.44
2022-12-18T01:58:46.326Z,102064.38
2022-12-18T02:02:45.950Z,102068.44
2022-12-18T02:06:45.763Z,102067.72
2022-12-18T02:10:52.008Z,102065.69
2022-12-18T02:14:57.990Z,102073.19
2022-12-18T02:19:00.103Z,102071.94
2022-12-18T02:23:07.482Z,102064.22
2022-12-18T02:27:11.910Z,102071.34
2022-12-18T02:31:14.268Z,102083.28
2022-12-18T02:35:15.913Z,102076.59
2022-12-18T02:39:16.689Z,102094.91
2022-12-18T02:43:18.984Z,102107.41
2022-12-18T02:47:19.502Z,102122.09
2022-12-18T02:51:24.959Z,102132.38
2022-12-18T02:55:32.125Z,102142.84
2022-12-18T02:59:39.311Z,102155.50
2022-12-18T03:03:41.861Z,102155.00
2022-12-18T03:07:47.001Z,102166.59
2022-12-18T03:12:05.949Z,102176.41
2022-12-18T03:16:08.203Z,102189.03
2022-12-18T03:20:10.474Z,102185.88
2022-12-18T03:24:10.902Z,102187.25
2022-12-18T03:28:12.910Z,102200.59
2022-12-18T03:32:17.000Z,102208.47
2022-12-18T03:36:16.827Z,102208.47
2022-12-18T03:40:15.596Z,102215.41
2022-12-18T03:44:17.773Z,102212.09
2022-12-18T03:48:22.188Z,102217.78
2022-12-18T03:52:26.132Z,102223.38
2022-12-18T03:56:26.910Z,102218.44
2022-12-18T04:00:26.263Z,102234.03
2022-12-18T04:04:29.686Z,102246.94
2022-12-18T04:08:32.160Z,102246.38
2022-12-18T04:12:32.528Z,102258.16
2022-12-18T04:16:32.065Z,102265.13
2022-12-18T04:20:34.177Z,102260.41
2022-12-18T04:24:33.352Z,102272.81
2022-12-18T04:28:33.778Z,102288.38
2022-12-18T04:32:32.637Z,102281.78
2022-12-18T04:36:35.379Z,102289.34
2022-12-18T04:40:34.359Z,102289.81
2022-12-18T04:44:37.621Z,102300.41
2022-12-18T04:48:36.670Z,102307.75
2022-12-18T04:52:37.916Z,102320.25
2022-12-18T04:56:37.146Z,102323.91
2022-12-18T05:00:36.277Z,102332.31
2022-12-18T05:04:35.502Z,102339.16
2022-12-18T05:08:36.520Z,102347.19
2022-12-18T05:12:55.733Z,102351.09
2022-12-18T05:16:59.255Z,102359.22
2022-12-18T05:21:00.325Z,102370.47
2022-12-18T05:25:01.631Z,102372.44
2022-12-18T05:29:00.842Z,102374.94
2022-12-18T05:33:00.012Z,102379.00
2022-12-18T05:36:59.163Z,102381.16
2022-12-18T05:41:00.671Z,102388.72
2022-12-18T05:44:59.793Z,102392.00
2022-12-18T05:48:58.443Z,102401.88
2022-12-18T05:52:57.763Z,102397.38
2022-12-18T05:56:59.208Z,102407.53
2022-12-18T06:00:58.391Z,102416.31
2022-12-18T06:04:57.722Z,102431.56
2022-12-18T06:08:58.006Z,102434.44
2022-12-18T06:12:59.256Z,102446.28
2022-12-18T06:16:58.399Z,102453.44
2022-12-18T06:20:58.608Z,102450.72
2022-12-18T06:24:57.964Z,102450.34
2022-12-18T06:28:59.373Z,102473.69
2022-12-18T06:32:58.681Z,102485.03
2022-12-18T06:36:57.846Z,102494.97
2022-12-18T06:40:57.081Z,102491.00
2022-12-18T06:44:58.452Z,102487.19
2022-12-18T06:48:57.662Z,102502.81
2022-12-18T06:52:56.828Z,102518.91
2022-12-18T06:56:56.081Z,102524.56
2022-12-18T07:01:01.901Z,102519.81
2022-12-18T07:05:04.822Z,102526.41
2022-12-18T07:09:06.390Z,102543.22
2022-12-18T07:13:05.642Z,102552.19
2022-12-18T07:17:07.316Z,102567.72
2022-12-18T07:21:07.530Z,102570.34
2022-12-18T07:25:07.401Z,102576.53
2022-12-18T07:29:06.564Z,102587.81
2022-12-18T07:33:07.996Z,102583.91
2022-12-18T07:37:07.473Z,102597.25
2022-12-18T07:41:07.538Z,102590.34
2022-12-18T07:45:07.440Z,102600.09
2022-12-18T07:49:08.958Z,102600.38
2022-12-18T07:53:08.213Z,102612.81
2022-12-18T07:57:16.441Z,102613.69
2022-12-18T08:01:27.113Z,102613.25
2022-12-18T08:05:28.874Z,102621.78
2022-12-18T08:09:28.115Z,102623.50
2022-12-18T08:13:28.004Z,102630.44
2022-12-18T08:17:27.660Z,102632.63
2022-12-18T08:21:29.944Z,102638.56
2022-12-18T08:25:29.232Z,102632.16
2022-12-18T08:29:28.789Z,102638.16
2022-12-18T08:33:28.398Z,102636.19
2022-12-18T08:37:29.912Z,102646.84
2022-12-18T08:41:29.261Z,102649.66
2022-12-18T08:45:28.567Z,102651.94
2022-12-18T08:49:27.324Z,102648.72
2022-12-18T08:53:34.066Z,102646.72
2022-12-18T08:57:34.200Z,102641.13
2022-12-18T09:01:34.284Z,102649.50
2022-12-18T09:05:34.857Z,102648.56
2022-12-18T09:12:00.150Z,102657.22
2022-12-18T09:15:59.529Z,102657.22
2022-12-18T09:19:58.994Z,102656.34
2022-12-18T09:23:58.716Z,102668.06
2022-12-18T09:28:00.144Z,102665.34
2022-12-18T09:32:00.341Z,102665.72
2022-12-18T09:35:59.894Z,102662.16
2022-12-18T09:39:59.343Z,102669.59
2022-12-18T09:44:03.341Z,102655.00
2022-12-18T09:48:07.863Z,102659.56
2022-12-18T09:52:12.708Z,102659.22
2022-12-18T09:56:15.308Z,102663.41
2022-12-18T10:00:19.447Z,102650.63
2022-12-18T10:04:19.383Z,102654.22
2022-12-18T10:08:24.904Z,102662.41
2022-12-18T10:12:29.496Z,102663.22
2022-12-18T10:16:36.408Z,102659.84
2022-12-18T10:20:38.345Z,102662.88
2022-12-18T10:24:40.858Z,102667.00
2022-12-18T10:28:41.959Z,102668.09
2022-12-18T10:32:43.922Z,102683.81
2022-12-18T10:36:43.623Z,102689.66
2022-12-18T10:40:51.221Z,102687.56
2022-12-18T10:45:03.758Z,102688.13
2022-12-18T10:49:05.510Z,102685.06
2022-12-18T10:53:06.861Z,102690.25
2022-12-18T10:57:19.763Z,102695.19
2022-12-18T11:01:20.717Z,102701.88
2022-12-18T11:05:29.726Z,102706.63
2022-12-18T11:09:30.606Z,102704.56
2022-12-18T11:13:31.037Z,102712.75
2022-12-18T11:17:31.929Z,102708.38
2022-12-18T11:21:41.782Z,102706.88
2022-12-18T11:25:41.321Z,102712.53
2022-12-18T11:29:46.634Z,102721.41
2022-12-18T11:34:11.903Z,102721.22
2022-12-18T11:38:16.985Z,102728.66
2022-12-18T11:42:20.259Z,102724.56
2022-12-18T11:46:21.860Z,102720.59
2022-12-18T11:50:22.900Z,102726.72
2022-12-18T11:54:24.301Z,102727.28
2022-12-18T11:58:32.620Z,102729.41
2022-12-18T12:02:41.920Z,102727.22
2022-12-18T12:06:47.017Z,102735.75
2022-12-18T12:10:54.600Z,102736.47
2022-12-18T12:15:01.427Z,102733.69
2022-12-18T12:19:06.594Z,102731.03
2022-12-18T12:23:08.858Z,102727.38
2022-12-18T12:27:14.130Z,102738.50
2022-12-18T12:31:18.357Z,102735.19
2022-12-18T12:35:22.467Z,102729.28
2022-12-18T12:39:25.515Z,102740.38
2022-12-18T12:43:29.939Z,102737.59
2022-12-18T12:47:31.405Z,102744.66
2022-12-18T12:51:31.704Z,102743.22
2022-12-18T12:55:32.123Z,102744.88
2022-12-18T12:59:38.573Z,102751.56
2022-12-18T13:03:44.289Z,102760.28
2022-12-18T13:07:49.086Z,102752.47
2022-12-18T13:12:05.304Z,102762.22
2022-12-18T13:16:11.185Z,102760.63
2022-12-18T13:20:15.940Z,102778.19
2022-12-18T13:24:18.713Z,102777.78
2022-12-18T13:28:18.638Z,102788.88
2022-12-18T13:32:25.320Z,102787.72
2022-12-18T13:36:30.031Z,102801.97
2022-12-18T13:40:57.089Z,102816.31
2022-12-18T13:44:56.381Z,102815.09
2022-12-18T13:49:05.656Z,102823.41
2022-12-18T13:53:07.954Z,102824.41
2022-12-18T13:57:08.338Z,102830.41
2022-12-18T14:01:07.223Z,102836.56
2022-12-18T14:05:22.209Z,102836.03
2022-12-18T14:09:28.174Z,102856.81
2022-12-18T14:13:30.797Z,102869.06
2022-12-18T14:17:29.912Z,102869.69
2022-12-18T14:21:32.673Z,102870.34
2022-12-18T14:25:33.941Z,102868.44
2022-12-18T14:29:33.785Z,102872.66
2022-12-18T14:33:32.978Z,102874.38
2022-12-18T14:37:32.208Z,102882.06
2022-12-18T14:41:34.001Z,102882.56
2022-12-18T14:45:41.701Z,102893.75
2022-12-18T14:49:44.360Z,102895.34
2022-12-18T14:53:50.527Z,102899.19
2022-12-18T14:57:55.376Z,102895.25
2022-12-18T15:02:00.321Z,102887.72
2022-12-18T15:06:17.688Z,102912.63
2022-12-18T15:10:18.078Z,102911.31
2022-12-18T15:14:33.250Z,102917.63
2022-12-18T15:18:36.270Z,102914.69
2022-12-18T15:22:36.931Z,102927.59
2022-12-18T15:26:39.276Z,102934.47
2022-12-18T15:30:40.752Z,102931.16
2022-12-18T15:34:39.974Z,102940.25
2022-12-18T15:38:39.283Z,102935.88
2022-12-18T15:42:55.214Z,102940.06
2022-12-18T15:46:56.528Z,102943.56
2022-12-18T15:50:57.399Z,102953.25
2022-12-18T15:55:13.131Z,102957.44
2022-12-18T15:59:14.831Z,102960.03
2022-12-18T16:03:16.195Z,102962.91
2022-12-18T16:07:17.015Z,102966.19
2022-12-18T16:11:38.306Z,102975.25
2022-12-18T16:15:37.537Z,102970.69
2022-12-18T16:19:38.842Z,102976.53
2022-12-18T16:23:38.100Z,102984.66
2022-12-18T16:27:37.038Z,103000.50
2022-12-18T16:31:36.591Z,103000.13
2022-12-18T16:35:37.777Z,103015.25
2022-12-18T16:39:37.546Z,103014.22
2022-12-18T16:43:36.777Z,103037.41
2022-12-18T16:47:36.447Z,103029.72
2022-12-18T16:51:37.714Z,103038.50
2022-12-18T16:55:36.912Z,103029.72
2022-12-18T16:59:36.271Z,103032.16
2022-12-18T17:03:35.668Z,103054.34
2022-12-18T17:07:36.991Z,103066.41
2022-12-18T17:11:37.383Z,103062.03
2022-12-18T17:15:37.292Z,103064.84
2022-12-18T17:19:36.711Z,103082.59
2022-12-18T17:23:39.139Z,103088.44
2022-12-18T17:27:39.909Z,103093.50
2022-12-18T17:31:39.143Z,103100.44
2022-12-18T17:35:38.726Z,103099.25
2022-12-18T17:39:40.300Z,103106.81
2022-12-18T17:43:45.264Z,103119.09
2022-12-18T17:47:44.462Z,103119.09
2022-12-18T17:51:44.198Z,103141.44
2022-12-18T17:55:45.642Z,103145.84
2022-12-18T17:59:44.841Z,103158.91
2022-12-18T18:03:44.571Z,103164.44
2022-12-18T18:07:44.116Z,103168.94
2022-12-18T18:12:02.064Z,103186.69
2022-12-18T18:16:03.274Z,103187.25
2022-12-18T18:20:02.746Z,103181.63
2022-12-18T18:24:03.148Z,103164.97
2022-12-18T18:28:04.479Z,103178.03
2022-12-18T18:32:03.868Z,103187.03
2022-12-18T18:36:03.268Z,103201.44
2022-12-18T18:40:05.500Z,103196.34
2022-12-18T18:44:06.938Z,103186.44
2022-12-18T18:48:06.423Z,103192.41
2022-12-18T18:52:06.746Z,103190.50
2022-12-18T18:56:40.844Z,103206.75
2022-12-18T19:00:28.598Z,103207.88
2022-12-18T19:04:28.183Z,103210.75
2022-12-18T19:08:27.901Z,103226.84
2022-12-18T19:12:42.638Z,103242.44
2022-12-18T19:16:44.998Z,103253.91
2022-12-18T19:20:48.584Z,103269.78
2022-12-18T19:24:48.262Z,103277.53
2022-12-18T19:28:48.033Z,103298.13
2022-12-18T19:32:49.579Z,103310.25
2022-12-18T19:36:49.025Z,103309.88
2022-12-18T19:40:48.190Z,103300.16
2022-12-18T19:44:48.415Z,103304.91
2022-12-18T19:48:50.274Z,103300.97
2022-12-18T19:52:49.444Z,103294.50
2022-12-18T19:56:48.669Z,103299.41
2022-12-18T20:00:48.002Z,103310.34
2022-12-18T20:04:49.326Z,103301.31
2022-12-18T20:08:48.722Z,103309.59
2022-12-18T20:12:47.505Z,103306.38
2022-12-18T20:16:47.317Z,103305.69
2022-12-18T20:20:50.201Z,103311.34
2022-12-18T20:24:50.766Z,103316.75
2022-12-18T20:28:50.144Z,103326.13
2022-12-18T20:32:48.933Z,103318.63
2022-12-18T20:36:50.257Z,103326.66
2022-12-18T20:40:50.549Z,103332.50
2022-12-18T20:44:49.698Z,103344.63
2022-12-18T20:48:49.606Z,103337.91
2022-12-18T20:52:51.482Z,103340.75
2022-12-18T20:56:50.866Z,103343.19
2022-12-18T21:00:50.134Z,103347.81
2022-12-18T21:04:49.488Z,103351.16
2022-12-18T21:08:51.380Z,103347.41
2022-12-18T21:13:01.757Z,103350.56
2022-12-18T21:17:02.603Z,103363.97
2022-12-18T21:21:01.262Z,103361.63
2022-12-18T21:25:02.925Z,103364.56
2022-12-18T21:29:02.470Z,103362.97
2022-12-18T21:33:01.816Z,103364.38
2022-12-18T21:37:01.937Z,103369.94
2022-12-18T21:41:07.304Z,103376.34
2022-12-18T21:45:06.803Z,103373.00
2022-12-18T21:49:06.711Z,103378.03
2022-12-18T21:53:06.034Z,103376.59
2022-12-18T21:57:08.334Z,103379.31
2022-12-18T22:01:07.779Z,103369.00
2022-12-18T22:05:07.303Z,103372.31
2022-12-18T22:09:07.465Z,103385.88
2022-12-18T22:13:09.129Z,103382.81
2022-12-18T22:17:09.436Z,103379.69
2022-12-18T22:21:12.640Z,103375.34
2022-12-18T22:25:12.202Z,103385.63
2022-12-18T22:29:31.749Z,103373.31
2022-12-18T22:33:32.963Z,103387.97
2022-12-18T22:37:32.172Z,103388.50
2022-12-18T22:41:31.324Z,103385.38
2022-12-18T22:45:34.120Z,103398.31
2022-12-18T22:49:38.330Z,103400.56
2022-12-18T22:53:37.513Z,103390.25
2022-12-18T22:57:38.171Z,103391.81
2022-12-18T23:01:42.210Z,103383.03
2022-12-18T23:05:42.872Z,103378.91
2022-12-18T23:09:42.452Z,103383.41
2022-12-18T23:13:42.250Z,103386.50
2022-12-18T23:17:43.644Z,103384.75
2022-12-18T23:21:42.883Z,103380.25
2022-12-18T23:25:41.637Z,103381.13
2022-12-18T23:29:40.888Z,103388.00
2022-12-18T23:33:42.553Z,103384.38
2022-12-18T23:37:58.787Z,103383.63
2022-12-18T23:41:58.994Z,103382.56
2022-12-18T23:45:58.197Z,103396.78
2022-12-18T23:49:59.616Z,103399.38
2022-12-18T23:54:00.197Z,103406.72
2022-12-18T23:57:59.363Z,103410.59
